Maersk Valencia — 9V5028 — position and weather

sailwx.info

Track history (hours):
 
Tides and Currents Weather Stations Pressure Air Temp Water Temp Dewpoint Dewpoint Depression Visibility Wind Speed Wind Dir Waves Ship Positions

Maersk Valencia

Last reported at 2017-Nov-10 17:30 UTC. Time now 2017-Nov-21 14:00 UTC.
Position N 23°48' W 016°36'.
Warning: this ship's position is 10 days out of date.

Length 175 m; draft 10.7 m.

Type: Cargo ship. MMSI: 563003400.

Date/timePositionNaut miles runAvg speedWind from/ knotsBaromVisibWave heightAir tempDewpointWater temp
2017-Nov-10 17:30N 23°48' W 016°36'816.1
2017-Nov-10 16:59N 23°55' W 016°33'815.9
2017-Nov-10 16:28N 24°02' W 016°29'716.2
2017-Nov-10 16:00N 24°09' W 016°24'816.1
2017-Nov-10 15:30N 24°15' W 016°19'816.2
2017-Nov-10 14:59N 24°22' W 016°14'816.2
2017-Nov-10 14:30N 24°29' W 016°10'816.3
2017-Nov-10 14:00N 24°36' W 016°05'816.2
2017-Nov-10 13:30N 24°43' W 015°60'816.3
2017-Nov-10 13:00N 24°50' W 015°55'816.4
2017-Nov-10 12:30N 24°56' W 015°50'816.3
2017-Nov-10 12:00N 25°03' W 015°45'815.9
2017-Nov-10 11:30N 25°10' W 015°41'816.1
2017-Nov-10 11:00N 25°17' W 015°36'13415.5
2017-Nov-10 02:21N 27°11' W 014°17'515.0
2017-Nov-10 02:00N 27°16' W 014°14'715.2
2017-Nov-10 01:30N 27°22' W 014°09'815.9
2017-Nov-10 01:00N 27°28' W 014°03'816.3
2017-Nov-10 00:30N 27°34' W 013°57'816.0
2017-Nov-10 00:00N 27°41' W 013°52'815.8
2017-Nov-09 23:30N 27°47' W 013°47'815.7
2017-Nov-09 23:00N 27°53' W 013°41'815.5
2017-Nov-09 22:30N 27°60' W 013°37'915.3
2017-Nov-09 21:56N 28°07' W 013°31'1215.2
2017-Nov-09 21:09N 28°17' W 013°24'315.2
2017-Nov-09 20:57N 28°20' W 013°22'915.4
2017-Nov-09 20:22N 28°27' W 013°16'615.8
2017-Nov-09 20:00N 28°32' W 013°12'815.6
2017-Nov-09 19:30N 28°38' W 013°07'815.6
2017-Nov-09 19:00N 28°45' W 013°03'21915.2
2017-Nov-09 04:34N 31°46' W 010°40'115.0
2017-Nov-09 04:29N 31°46' W 010°39'12915.5
2017-Nov-08 20:09N 33°24' W 008°58'715.7
2017-Nov-08 19:41N 33°30' W 008°52'315.6
2017-Nov-08 19:30N 33°32' W 008°50'3215.4
2017-Nov-08 17:26N 33°56' W 008°25'815.2
2017-Nov-08 16:55N 34°01' W 008°18'1415.4
2017-Nov-08 16:01N 34°11' W 008°07'115.5
2017-Nov-08 15:58N 34°12' W 008°06'715.5
2017-Nov-08 15:30N 34°17' W 007°60'168 6.6
2017-Nov-07 14:00N 36°08' W 005°26'0 0.0
2017-Nov-07 13:30N 36°08' W 005°26'0 0.0
2017-Nov-07 12:57N 36°08' W 005°26'0 0.0
2017-Nov-07 12:24N 36°08' W 005°26'1 3.8
2017-Nov-07 12:00N 36°09' W 005°25'0 0.2
2017-Nov-07 11:22N 36°09' W 005°25'0 0.1
2017-Nov-07 10:58N 36°09' W 005°25'0 0.2
2017-Nov-07 10:28N 36°09' W 005°25'0 0.0
2017-Nov-07 09:46N 36°09' W 005°25'6 0.5
2017-Nov-06 20:51N 36°04' W 005°22'6 0.3
2017-Nov-06 00:32N 35°59' W 005°17'015.6
2017-Nov-06 00:30N 35°59' W 005°18'  
Track history (hours):
 
Tides and Currents Weather Stations Pressure Air Temp Water Temp Dewpoint Dewpoint Depression Visibility Wind Speed Wind Dir Waves Ship Positions

Maersk Valencia

Last reported at 2017-Nov-10 17:30 UTC. Time now 2017-Nov-21 14:00 UTC.
Position N 23°48' W 016°36'.
Warning: this ship's position is 10 days out of date.

Length 175 m; draft 10.7 m.

Type: Cargo ship. MMSI: 563003400.

Date/timePositionNaut miles runAvg speedWind from/ knotsBaromVisibWave heightAir tempDewpointWater temp
2017-Nov-10 17:30N 23°48' W 016°36'816.1
2017-Nov-10 16:59N 23°55' W 016°33'815.9
2017-Nov-10 16:28N 24°02' W 016°29'716.2
2017-Nov-10 16:00N 24°09' W 016°24'816.1
2017-Nov-10 15:30N 24°15' W 016°19'816.2
2017-Nov-10 14:59N 24°22' W 016°14'816.2
2017-Nov-10 14:30N 24°29' W 016°10'816.3
2017-Nov-10 14:00N 24°36' W 016°05'816.2
2017-Nov-10 13:30N 24°43' W 015°60'816.3
2017-Nov-10 13:00N 24°50' W 015°55'816.4
2017-Nov-10 12:30N 24°56' W 015°50'816.3
2017-Nov-10 12:00N 25°03' W 015°45'815.9
2017-Nov-10 11:30N 25°10' W 015°41'816.1
2017-Nov-10 11:00N 25°17' W 015°36'13415.5
2017-Nov-10 02:21N 27°11' W 014°17'515.0
2017-Nov-10 02:00N 27°16' W 014°14'715.2
2017-Nov-10 01:30N 27°22' W 014°09'815.9
2017-Nov-10 01:00N 27°28' W 014°03'816.3
2017-Nov-10 00:30N 27°34' W 013°57'816.0
2017-Nov-10 00:00N 27°41' W 013°52'815.8
2017-Nov-09 23:30N 27°47' W 013°47'815.7
2017-Nov-09 23:00N 27°53' W 013°41'815.5
2017-Nov-09 22:30N 27°60' W 013°37'915.3
2017-Nov-09 21:56N 28°07' W 013°31'1215.2
2017-Nov-09 21:09N 28°17' W 013°24'315.2
2017-Nov-09 20:57N 28°20' W 013°22'915.4
2017-Nov-09 20:22N 28°27' W 013°16'615.8
2017-Nov-09 20:00N 28°32' W 013°12'815.6
2017-Nov-09 19:30N 28°38' W 013°07'815.6
2017-Nov-09 19:00N 28°45' W 013°03'21915.2
2017-Nov-09 04:34N 31°46' W 010°40'115.0
2017-Nov-09 04:29N 31°46' W 010°39'12915.5
2017-Nov-08 20:09N 33°24' W 008°58'715.7
2017-Nov-08 19:41N 33°30' W 008°52'315.6
2017-Nov-08 19:30N 33°32' W 008°50'3215.4
2017-Nov-08 17:26N 33°56' W 008°25'815.2
2017-Nov-08 16:55N 34°01' W 008°18'1415.4
2017-Nov-08 16:01N 34°11' W 008°07'115.5
2017-Nov-08 15:58N 34°12' W 008°06'715.5
2017-Nov-08 15:30N 34°17' W 007°60'168 6.6
2017-Nov-07 14:00N 36°08' W 005°26'0 0.0
2017-Nov-07 13:30N 36°08' W 005°26'0 0.0
2017-Nov-07 12:57N 36°08' W 005°26'0 0.0
2017-Nov-07 12:24N 36°08' W 005°26'1 3.8
2017-Nov-07 12:00N 36°09' W 005°25'0 0.2
2017-Nov-07 11:22N 36°09' W 005°25'0 0.1
2017-Nov-07 10:58N 36°09' W 005°25'0 0.2
2017-Nov-07 10:28N 36°09' W 005°25'0 0.0
2017-Nov-07 09:46N 36°09' W 005°25'6 0.5
2017-Nov-06 20:51N 36°04' W 005°22'6 0.3
2017-Nov-06 00:32N 35°59' W 005°17'015.6
2017-Nov-06 00:30N 35°59' W 005°18'  

Dump ship's entire track history